Alberta Amoretti — ITNR — position and weather

sailwx.info

Track history (hours):
 
Tides and Currents Weather Stations Pressure Air Temp Water Temp Dewpoint Dewpoint Depression Visibility Wind Speed Wind Dir Waves Ship Positions

Alberta Amoretti

Last reported at 2017-Nov-22 20:29 UTC. Time now 2017-Nov-22 20:50 UTC.
Position N 38°07' E 013°26'.

Length 176 m; draft 8 m.

Type: Ship (hazmat cat A). MMSI: 247593000.

Date/timePositionNaut miles runAvg speedWind from/ knotsBaromVisibWave heightAir tempDewpointWater temp
2017-Nov-22 20:29N 38°07' E 013°26'0 0.1
2017-Nov-22 19:59N 38°07' E 013°26'0 0.1
2017-Nov-22 19:26N 38°07' E 013°26'  
2017-Nov-20 00:28N 43°34' E 010°18'0 0.0
2017-Nov-19 23:58N 43°34' E 010°18'0 0.0
2017-Nov-19 23:28N 43°34' E 010°18'0 0.0
2017-Nov-19 22:58N 43°34' E 010°18'0 0.0
2017-Nov-19 22:25N 43°34' E 010°18'0 0.0
2017-Nov-19 21:58N 43°34' E 010°18'0 0.0
2017-Nov-19 21:25N 43°34' E 010°18'0 0.0
2017-Nov-19 20:52N 43°34' E 010°18'0 0.0
2017-Nov-19 20:28N 43°34' E 010°18'0 0.0
2017-Nov-19 19:52N 43°34' E 010°18'0 0.0
2017-Nov-19 19:22N 43°34' E 010°18'0 0.0
2017-Nov-19 18:58N 43°34' E 010°18'0 0.0
2017-Nov-19 18:28N 43°34' E 010°18'0 0.0
2017-Nov-19 17:58N 43°34' E 010°18'0 0.0
2017-Nov-19 17:28N 43°34' E 010°18'0 0.0
2017-Nov-19 16:55N 43°34' E 010°18'0 0.0
2017-Nov-19 16:28N 43°34' E 010°18'0 0.0
2017-Nov-19 15:58N 43°34' E 010°18'0 0.0
2017-Nov-19 15:28N 43°34' E 010°18'0 0.0
2017-Nov-19 14:58N 43°34' E 010°18'0 0.0
2017-Nov-19 14:31N 43°34' E 010°18'0 0.0
2017-Nov-19 13:58N 43°34' E 010°18'0 0.0
2017-Nov-19 13:31N 43°34' E 010°18'0 0.0
2017-Nov-19 13:00N 43°34' E 010°18'0 0.0
2017-Nov-19 12:30N 43°34' E 010°18'0 0.0
2017-Nov-19 12:00N 43°34' E 010°18'0 0.0
2017-Nov-19 11:30N 43°34' E 010°18'0 0.0
2017-Nov-19 11:00N 43°34' E 010°18'0 0.3
2017-Nov-19 10:30N 43°34' E 010°18'2 4.3
2017-Nov-19 10:00N 43°32' E 010°16'1 1.5
2017-Nov-19 09:30N 43°31' E 010°16'2 4.4
2017-Nov-19 09:00N 43°29' E 010°18'0 0.2
2017-Nov-19 08:29N 43°29' E 010°18'0 0.0
2017-Nov-19 07:59N 43°29' E 010°18'0 0.0
2017-Nov-19 07:29N 43°29' E 010°18'0 0.0
2017-Nov-19 06:59N 43°29' E 010°18'0 0.0
2017-Nov-19 06:26N 43°29' E 010°18'0 0.0
2017-Nov-19 05:59N 43°29' E 010°18'0 0.0
2017-Nov-19 05:26N 43°29' E 010°18'0 0.0
2017-Nov-19 05:00N 43°29' E 010°18'0 0.0
2017-Nov-19 04:30N 43°29' E 010°18'0 0.0
2017-Nov-19 04:00N 43°29' E 010°18'0 0.3
2017-Nov-19 03:30N 43°29' E 010°18'0 0.4
2017-Nov-19 03:00N 43°29' E 010°18'4 8.1
2017-Nov-19 02:30N 43°26' E 010°14'611.9
2017-Nov-19 02:00N 43°21' E 010°10'612.0
2017-Nov-19 01:30N 43°15' E 010°08'712.4
2017-Nov-19 00:55N 43°08' E 010°05'34912.3
2017-Nov-17 20:28N 38°44' E 015°07'712.3
2017-Nov-17 19:52N 38°38' E 015°12'512.9
2017-Nov-17 19:30N 38°33' E 015°13'613.1
2017-Nov-17 19:01N 38°27' E 015°15'612.8
2017-Nov-17 18:30N 38°20' E 015°16'612.2
2017-Nov-17 18:00N 38°14' E 015°17'2 3.8
2017-Nov-17 17:30N 38°13' E 015°16'0 0.0
2017-Nov-17 17:00N 38°13' E 015°16'0 0.0
2017-Nov-17 16:30N 38°13' E 015°16'0 0.0
2017-Nov-17 16:00N 38°13' E 015°16'0 0.0
2017-Nov-17 15:30N 38°13' E 015°16'0 0.0
2017-Nov-17 15:00N 38°13' E 015°16'0 0.0
2017-Nov-17 14:30N 38°13' E 015°16'0 0.0
2017-Nov-17 14:00N 38°13' E 015°16'0 0.0
2017-Nov-17 13:30N 38°13' E 015°16'0 0.0
2017-Nov-17 13:00N 38°13' E 015°16'0 0.0
2017-Nov-17 12:30N 38°13' E 015°16'0 0.0
2017-Nov-17 12:00N 38°13' E 015°16'0 0.0
2017-Nov-17 11:30N 38°13' E 015°16'0 0.0
2017-Nov-17 11:00N 38°13' E 015°16'0 0.0
2017-Nov-17 10:30N 38°13' E 015°16'0 0.0
2017-Nov-17 10:00N 38°13' E 015°16'0 0.0
2017-Nov-17 09:30N 38°13' E 015°16'0 0.0
2017-Nov-17 09:00N 38°13' E 015°16'0 0.0
2017-Nov-17 08:30N 38°13' E 015°16'0 0.0
2017-Nov-17 08:00N 38°13' E 015°16'0 0.0
2017-Nov-17 07:30N 38°13' E 015°16'0 0.0
2017-Nov-17 07:00N 38°13' E 015°16'0 0.0
2017-Nov-17 06:30N 38°13' E 015°16'0 0.0
2017-Nov-17 06:00N 38°13' E 015°16'0 0.0
2017-Nov-17 05:30N 38°13' E 015°16'0 0.0
2017-Nov-17 05:00N 38°13' E 015°16'0 0.0
2017-Nov-17 04:30N 38°13' E 015°16'0 0.0
2017-Nov-17 04:00N 38°13' E 015°16'0 0.0
2017-Nov-17 03:30N 38°13' E 015°16'0 0.0
2017-Nov-17 03:00N 38°13' E 015°16'0 0.0
2017-Nov-17 02:30N 38°13' E 015°16'0 0.0
2017-Nov-17 02:00N 38°13' E 015°16'0 0.0
2017-Nov-17 01:30N 38°13' E 015°16'0 0.0
2017-Nov-17 01:00N 38°13' E 015°16'0 0.0
2017-Nov-17 00:30N 38°13' E 015°16'0 0.0
2017-Nov-17 00:00N 38°13' E 015°16'0 0.0
2017-Nov-16 23:30N 38°13' E 015°16'0 0.0
2017-Nov-16 23:00N 38°13' E 015°16'0 0.0
2017-Nov-16 22:30N 38°13' E 015°16'0 0.0
2017-Nov-16 22:00N 38°13' E 015°16'0 0.0
2017-Nov-16 21:30N 38°13' E 015°16'0 0.0
2017-Nov-16 21:00N 38°13' E 015°16'0 0.0
2017-Nov-16 20:30N 38°13' E 015°16'0 0.0
2017-Nov-16 20:00N 38°13' E 015°16'0 0.0
2017-Nov-16 19:30N 38°13' E 015°16'0 0.0
2017-Nov-16 19:00N 38°13' E 015°16'0 0.0
2017-Nov-16 18:30N 38°13' E 015°16'0 0.0
2017-Nov-16 18:00N 38°13' E 015°16'0 0.0
2017-Nov-16 17:30N 38°13' E 015°16'0 0.0
2017-Nov-16 17:00N 38°13' E 015°16'0 0.0
2017-Nov-16 16:30N 38°13' E 015°16'0 0.0
2017-Nov-16 16:00N 38°13' E 015°16'0 0.0
2017-Nov-16 15:30N 38°13' E 015°16'0 0.0
2017-Nov-16 15:00N 38°13' E 015°16'0 0.0
2017-Nov-16 14:30N 38°13' E 015°16'0 0.0
2017-Nov-16 14:00N 38°13' E 015°16'0 0.0
2017-Nov-16 13:30N 38°13' E 015°16'0 0.0
2017-Nov-16 13:00N 38°13' E 015°16'0 0.0
2017-Nov-16 12:30N 38°13' E 015°16'0 0.0
2017-Nov-16 12:00N 38°13' E 015°16'0 0.0
2017-Nov-16 11:30N 38°13' E 015°16'0 0.0
2017-Nov-16 11:00N 38°13' E 015°16'0 0.0
2017-Nov-16 10:30N 38°13' E 015°16'0 0.0
2017-Nov-16 10:00N 38°13' E 015°16'0 0.0
2017-Nov-16 09:30N 38°13' E 015°16'0 0.0
2017-Nov-16 09:00N 38°13' E 015°16'0 0.0
2017-Nov-16 08:30N 38°13' E 015°16'0 0.0
2017-Nov-16 07:54N 38°13' E 015°16'0 0.0
2017-Nov-16 07:30N 38°13' E 015°16'0 0.0
2017-Nov-16 06:59N 38°13' E 015°16'0 0.0
2017-Nov-16 06:29N 38°13' E 015°16'0 0.0
2017-Nov-16 05:59N 38°13' E 015°16'0 0.0
2017-Nov-16 05:29N 38°13' E 015°16'0 0.0
2017-Nov-16 04:59N 38°13' E 015°16'0 0.0
2017-Nov-16 04:29N 38°13' E 015°16'0 0.0
2017-Nov-16 03:59N 38°13' E 015°16'0 0.0
2017-Nov-16 03:29N 38°13' E 015°16'0 0.0
2017-Nov-16 02:59N 38°13' E 015°16'0 0.0
2017-Nov-16 02:29N 38°13' E 015°16'0 0.0
2017-Nov-16 01:59N 38°13' E 015°16'0 0.0
2017-Nov-16 01:29N 38°13' E 015°16'0 0.0
2017-Nov-16 00:59N 38°13' E 015°16'0 0.0
2017-Nov-16 00:29N 38°13' E 015°16'0 0.0
2017-Nov-15 23:59N 38°13' E 015°16'0 0.0
2017-Nov-15 23:29N 38°13' E 015°16'0 0.0
2017-Nov-15 22:59N 38°13' E 015°16'0 0.0
2017-Nov-15 22:29N 38°13' E 015°16'0 0.0
2017-Nov-15 21:53N 38°13' E 015°16'0 0.0
2017-Nov-15 21:29N 38°13' E 015°16'0 0.0
2017-Nov-15 20:59N 38°13' E 015°16'0 0.0
2017-Nov-15 20:29N 38°13' E 015°16'0 0.0
2017-Nov-15 19:59N 38°13' E 015°16'0 0.0
2017-Nov-15 19:29N 38°13' E 015°16'0 0.0
2017-Nov-15 18:59N 38°13' E 015°16'0 0.0
2017-Nov-15 18:29N 38°13' E 015°16'0 0.0
2017-Nov-15 17:59N 38°13' E 015°16'0 0.0
2017-Nov-15 17:29N 38°13' E 015°16'0 0.0
2017-Nov-15 16:53N 38°13' E 015°16'0 0.0
2017-Nov-15 16:29N 38°13' E 015°16'0 0.0
2017-Nov-15 15:59N 38°13' E 015°16'0 0.0
2017-Nov-15 15:29N 38°13' E 015°16'0 0.1
2017-Nov-15 15:00N 38°13' E 015°16'1 2.1
2017-Nov-15 14:30N 38°13' E 015°18'0 0.1
2017-Nov-15 14:00N 38°13' E 015°18'0 0.0
2017-Nov-15 13:30N 38°13' E 015°18'0 0.1
2017-Nov-15 13:00N 38°13' E 015°18'0 0.0
2017-Nov-15 12:30N 38°13' E 015°18'0 0.1
2017-Nov-15 12:00N 38°13' E 015°18'0 0.1
2017-Nov-15 11:30N 38°13' E 015°18'0 0.0
2017-Nov-15 11:00N 38°13' E 015°18'0 0.1
2017-Nov-15 10:24N 38°13' E 015°18'0 0.1
2017-Nov-15 10:00N 38°13' E 015°18'0 0.0
2017-Nov-15 09:30N 38°13' E 015°18'0 0.1
2017-Nov-15 09:00N 38°13' E 015°18'0 0.1
2017-Nov-15 08:30N 38°13' E 015°18'0 0.1
2017-Nov-15 08:00N 38°13' E 015°18'0 0.1
2017-Nov-15 07:30N 38°13' E 015°18'0 0.2
2017-Nov-15 07:00N 38°13' E 015°18'0 0.0
2017-Nov-15 06:30N 38°13' E 015°18'0 0.0
2017-Nov-15 06:00N 38°13' E 015°18'0 0.2
2017-Nov-15 05:30N 38°13' E 015°18'0 0.1
2017-Nov-15 05:00N 38°13' E 015°18'0 0.1
2017-Nov-15 04:30N 38°13' E 015°18'0 0.0
2017-Nov-15 04:00N 38°13' E 015°18'0 0.1
2017-Nov-15 03:30N 38°13' E 015°18'0 0.0
2017-Nov-15 03:00N 38°13' E 015°18'0 0.0
2017-Nov-15 02:30N 38°13' E 015°18'0 0.0
2017-Nov-15 02:00N 38°13' E 015°18'0 0.0
2017-Nov-15 01:30N 38°13' E 015°18'0 0.1
2017-Nov-15 01:00N 38°13' E 015°18'0 0.1
2017-Nov-15 00:30N 38°13' E 015°18'0 0.1
2017-Nov-15 00:00N 38°13' E 015°18'0 0.1
2017-Nov-14 23:30N 38°13' E 015°18'0 0.0
2017-Nov-14 23:00N 38°13' E 015°18'0 0.0
2017-Nov-14 22:30N 38°13' E 015°18'0 0.0
2017-Nov-14 22:00N 38°13' E 015°18'0 0.0
2017-Nov-14 21:30N 38°13' E 015°18'0 0.1
2017-Nov-14 21:00N 38°13' E 015°18'0 0.0
2017-Nov-14 20:30N 38°13' E 015°18'0 0.1
2017-Nov-14 20:00N 38°13' E 015°18'0 0.0
2017-Nov-14 19:30N 38°13' E 015°18'0 0.0
2017-Nov-14 19:00N 38°13' E 015°18'0 0.0
2017-Nov-14 18:30N 38°13' E 015°18'0 0.0
2017-Nov-14 18:00N 38°13' E 015°18'0 0.0
2017-Nov-14 17:30N 38°13' E 015°18'0 0.0
2017-Nov-14 17:00N 38°13' E 015°18'0 0.1
2017-Nov-14 16:30N 38°13' E 015°18'0 0.1
2017-Nov-14 16:00N 38°13' E 015°18'0 0.1
2017-Nov-14 15:30N 38°13' E 015°18'0 0.1
2017-Nov-14 15:00N 38°13' E 015°18'0 0.0
2017-Nov-14 14:30N 38°13' E 015°18'0 0.3
2017-Nov-14 14:00N 38°13' E 015°18'0 0.1
2017-Nov-14 13:30N 38°13' E 015°18'0 0.1
2017-Nov-14 13:00N 38°13' E 015°18'0 0.0
2017-Nov-14 12:30N 38°13' E 015°18'0 0.0
2017-Nov-14 12:00N 38°13' E 015°18'0 0.0
2017-Nov-14 11:29N 38°13' E 015°18'0 0.0
2017-Nov-14 10:59N 38°13' E 015°18'0 0.0
2017-Nov-14 10:29N 38°13' E 015°18'0 0.1
2017-Nov-14 09:59N 38°13' E 015°18'0 0.2
2017-Nov-14 09:29N 38°13' E 015°18'1 1.9
2017-Nov-14 09:00N 38°14' E 015°17'3 5.0
2017-Nov-14 08:30N 38°16' E 015°17'510.2
2017-Nov-14 08:00N 38°21' E 015°13'3 6.5
2017-Nov-14 07:30N 38°23' E 015°10'4 7.5
2017-Nov-14 07:00N 38°20' E 015°13'4 8.7
2017-Nov-14 06:30N 38°16' E 015°17'3 6.8
2017-Nov-14 06:00N 38°13' E 015°17'0 0.3
2017-Nov-14 05:27N 38°13' E 015°17'0 0.0
2017-Nov-14 04:57N 38°13' E 015°17'0 0.1
2017-Nov-14 04:27N 38°13' E 015°17'0 0.3
2017-Nov-14 03:57N 38°13' E 015°18'0 0.2
2017-Nov-14 03:27N 38°13' E 015°18'0 0.0
2017-Nov-14 02:57N 38°13' E 015°18'0 0.0
2017-Nov-14 02:27N 38°13' E 015°18'0 0.1
2017-Nov-14 01:57N 38°13' E 015°18'0 0.1
2017-Nov-14 01:27N 38°13' E 015°18'0 0.1
2017-Nov-14 00:57N 38°13' E 015°18'0 0.1
2017-Nov-14 00:27N 38°13' E 015°18'0 0.1
2017-Nov-13 23:57N 38°13' E 015°18'0 0.1
2017-Nov-13 23:27N 38°13' E 015°18'0 0.0
2017-Nov-13 22:57N 38°13' E 015°18'0 0.0
2017-Nov-13 22:27N 38°13' E 015°18'0 0.1
2017-Nov-13 21:51N 38°13' E 015°18'0 0.0
2017-Nov-13 01:56N 38°13' E 015°17'0 0.0
2017-Nov-13 01:26N 38°13' E 015°17'0 0.0
2017-Nov-13 00:59N 38°13' E 015°17'0 0.0
2017-Nov-13 00:26N 38°13' E 015°17'0 0.0
2017-Nov-12 23:56N 38°13' E 015°17'0 0.0
2017-Nov-12 23:26N 38°13' E 015°17'0 0.0
2017-Nov-12 22:56N 38°13' E 015°17'0 0.0
2017-Nov-12 22:26N 38°13' E 015°17'0 0.0
2017-Nov-12 21:56N 38°13' E 015°17'0 0.1
2017-Nov-12 21:26N 38°13' E 015°17'0 0.0
2017-Nov-12 20:56N 38°13' E 015°17'0 0.1
2017-Nov-12 20:29N 38°13' E 015°17'  
Track history (hours):
 
Tides and Currents Weather Stations Pressure Air Temp Water Temp Dewpoint Dewpoint Depression Visibility Wind Speed Wind Dir Waves Ship Positions

Alberta Amoretti

Last reported at 2017-Nov-22 20:29 UTC. Time now 2017-Nov-22 20:50 UTC.
Position N 38°07' E 013°26'.

Length 176 m; draft 8 m.

Type: Ship (hazmat cat A). MMSI: 247593000.

Date/timePositionNaut miles runAvg speedWind from/ knotsBaromVisibWave heightAir tempDewpointWater temp
2017-Nov-22 20:29N 38°07' E 013°26'0 0.1
2017-Nov-22 19:59N 38°07' E 013°26'0 0.1
2017-Nov-22 19:26N 38°07' E 013°26'  
2017-Nov-20 00:28N 43°34' E 010°18'0 0.0
2017-Nov-19 23:58N 43°34' E 010°18'0 0.0
2017-Nov-19 23:28N 43°34' E 010°18'0 0.0
2017-Nov-19 22:58N 43°34' E 010°18'0 0.0
2017-Nov-19 22:25N 43°34' E 010°18'0 0.0
2017-Nov-19 21:58N 43°34' E 010°18'0 0.0
2017-Nov-19 21:25N 43°34' E 010°18'0 0.0
2017-Nov-19 20:52N 43°34' E 010°18'0 0.0
2017-Nov-19 20:28N 43°34' E 010°18'0 0.0
2017-Nov-19 19:52N 43°34' E 010°18'0 0.0
2017-Nov-19 19:22N 43°34' E 010°18'0 0.0
2017-Nov-19 18:58N 43°34' E 010°18'0 0.0
2017-Nov-19 18:28N 43°34' E 010°18'0 0.0
2017-Nov-19 17:58N 43°34' E 010°18'0 0.0
2017-Nov-19 17:28N 43°34' E 010°18'0 0.0
2017-Nov-19 16:55N 43°34' E 010°18'0 0.0
2017-Nov-19 16:28N 43°34' E 010°18'0 0.0
2017-Nov-19 15:58N 43°34' E 010°18'0 0.0
2017-Nov-19 15:28N 43°34' E 010°18'0 0.0
2017-Nov-19 14:58N 43°34' E 010°18'0 0.0
2017-Nov-19 14:31N 43°34' E 010°18'0 0.0
2017-Nov-19 13:58N 43°34' E 010°18'0 0.0
2017-Nov-19 13:31N 43°34' E 010°18'0 0.0
2017-Nov-19 13:00N 43°34' E 010°18'0 0.0
2017-Nov-19 12:30N 43°34' E 010°18'0 0.0
2017-Nov-19 12:00N 43°34' E 010°18'0 0.0
2017-Nov-19 11:30N 43°34' E 010°18'0 0.0
2017-Nov-19 11:00N 43°34' E 010°18'0 0.3
2017-Nov-19 10:30N 43°34' E 010°18'2 4.3
2017-Nov-19 10:00N 43°32' E 010°16'1 1.5
2017-Nov-19 09:30N 43°31' E 010°16'2 4.4
2017-Nov-19 09:00N 43°29' E 010°18'0 0.2
2017-Nov-19 08:29N 43°29' E 010°18'0 0.0
2017-Nov-19 07:59N 43°29' E 010°18'0 0.0
2017-Nov-19 07:29N 43°29' E 010°18'0 0.0
2017-Nov-19 06:59N 43°29' E 010°18'0 0.0
2017-Nov-19 06:26N 43°29' E 010°18'0 0.0
2017-Nov-19 05:59N 43°29' E 010°18'0 0.0
2017-Nov-19 05:26N 43°29' E 010°18'0 0.0
2017-Nov-19 05:00N 43°29' E 010°18'0 0.0
2017-Nov-19 04:30N 43°29' E 010°18'0 0.0
2017-Nov-19 04:00N 43°29' E 010°18'0 0.3
2017-Nov-19 03:30N 43°29' E 010°18'0 0.4
2017-Nov-19 03:00N 43°29' E 010°18'4 8.1
2017-Nov-19 02:30N 43°26' E 010°14'611.9
2017-Nov-19 02:00N 43°21' E 010°10'612.0
2017-Nov-19 01:30N 43°15' E 010°08'712.4
2017-Nov-19 00:55N 43°08' E 010°05'34912.3
2017-Nov-17 20:28N 38°44' E 015°07'712.3
2017-Nov-17 19:52N 38°38' E 015°12'512.9
2017-Nov-17 19:30N 38°33' E 015°13'613.1
2017-Nov-17 19:01N 38°27' E 015°15'612.8
2017-Nov-17 18:30N 38°20' E 015°16'612.2
2017-Nov-17 18:00N 38°14' E 015°17'2 3.8
2017-Nov-17 17:30N 38°13' E 015°16'0 0.0
2017-Nov-17 17:00N 38°13' E 015°16'0 0.0
2017-Nov-17 16:30N 38°13' E 015°16'0 0.0
2017-Nov-17 16:00N 38°13' E 015°16'0 0.0
2017-Nov-17 15:30N 38°13' E 015°16'0 0.0
2017-Nov-17 15:00N 38°13' E 015°16'0 0.0
2017-Nov-17 14:30N 38°13' E 015°16'0 0.0
2017-Nov-17 14:00N 38°13' E 015°16'0 0.0
2017-Nov-17 13:30N 38°13' E 015°16'0 0.0
2017-Nov-17 13:00N 38°13' E 015°16'0 0.0
2017-Nov-17 12:30N 38°13' E 015°16'0 0.0
2017-Nov-17 12:00N 38°13' E 015°16'0 0.0
2017-Nov-17 11:30N 38°13' E 015°16'0 0.0
2017-Nov-17 11:00N 38°13' E 015°16'0 0.0
2017-Nov-17 10:30N 38°13' E 015°16'0 0.0
2017-Nov-17 10:00N 38°13' E 015°16'0 0.0
2017-Nov-17 09:30N 38°13' E 015°16'0 0.0
2017-Nov-17 09:00N 38°13' E 015°16'0 0.0
2017-Nov-17 08:30N 38°13' E 015°16'0 0.0
2017-Nov-17 08:00N 38°13' E 015°16'0 0.0
2017-Nov-17 07:30N 38°13' E 015°16'0 0.0
2017-Nov-17 07:00N 38°13' E 015°16'0 0.0
2017-Nov-17 06:30N 38°13' E 015°16'0 0.0
2017-Nov-17 06:00N 38°13' E 015°16'0 0.0
2017-Nov-17 05:30N 38°13' E 015°16'0 0.0
2017-Nov-17 05:00N 38°13' E 015°16'0 0.0
2017-Nov-17 04:30N 38°13' E 015°16'0 0.0
2017-Nov-17 04:00N 38°13' E 015°16'0 0.0
2017-Nov-17 03:30N 38°13' E 015°16'0 0.0
2017-Nov-17 03:00N 38°13' E 015°16'0 0.0
2017-Nov-17 02:30N 38°13' E 015°16'0 0.0
2017-Nov-17 02:00N 38°13' E 015°16'0 0.0
2017-Nov-17 01:30N 38°13' E 015°16'0 0.0
2017-Nov-17 01:00N 38°13' E 015°16'0 0.0
2017-Nov-17 00:30N 38°13' E 015°16'0 0.0
2017-Nov-17 00:00N 38°13' E 015°16'0 0.0
2017-Nov-16 23:30N 38°13' E 015°16'0 0.0
2017-Nov-16 23:00N 38°13' E 015°16'0 0.0
2017-Nov-16 22:30N 38°13' E 015°16'0 0.0
2017-Nov-16 22:00N 38°13' E 015°16'0 0.0
2017-Nov-16 21:30N 38°13' E 015°16'0 0.0
2017-Nov-16 21:00N 38°13' E 015°16'0 0.0
2017-Nov-16 20:30N 38°13' E 015°16'0 0.0
2017-Nov-16 20:00N 38°13' E 015°16'0 0.0
2017-Nov-16 19:30N 38°13' E 015°16'0 0.0
2017-Nov-16 19:00N 38°13' E 015°16'0 0.0
2017-Nov-16 18:30N 38°13' E 015°16'0 0.0
2017-Nov-16 18:00N 38°13' E 015°16'0 0.0
2017-Nov-16 17:30N 38°13' E 015°16'0 0.0
2017-Nov-16 17:00N 38°13' E 015°16'0 0.0
2017-Nov-16 16:30N 38°13' E 015°16'0 0.0
2017-Nov-16 16:00N 38°13' E 015°16'0 0.0
2017-Nov-16 15:30N 38°13' E 015°16'0 0.0
2017-Nov-16 15:00N 38°13' E 015°16'0 0.0
2017-Nov-16 14:30N 38°13' E 015°16'0 0.0
2017-Nov-16 14:00N 38°13' E 015°16'0 0.0
2017-Nov-16 13:30N 38°13' E 015°16'0 0.0
2017-Nov-16 13:00N 38°13' E 015°16'0 0.0
2017-Nov-16 12:30N 38°13' E 015°16'0 0.0
2017-Nov-16 12:00N 38°13' E 015°16'0 0.0
2017-Nov-16 11:30N 38°13' E 015°16'0 0.0
2017-Nov-16 11:00N 38°13' E 015°16'0 0.0
2017-Nov-16 10:30N 38°13' E 015°16'0 0.0
2017-Nov-16 10:00N 38°13' E 015°16'0 0.0
2017-Nov-16 09:30N 38°13' E 015°16'0 0.0
2017-Nov-16 09:00N 38°13' E 015°16'0 0.0
2017-Nov-16 08:30N 38°13' E 015°16'0 0.0
2017-Nov-16 07:54N 38°13' E 015°16'0 0.0
2017-Nov-16 07:30N 38°13' E 015°16'0 0.0
2017-Nov-16 06:59N 38°13' E 015°16'0 0.0
2017-Nov-16 06:29N 38°13' E 015°16'0 0.0
2017-Nov-16 05:59N 38°13' E 015°16'0 0.0
2017-Nov-16 05:29N 38°13' E 015°16'0 0.0
2017-Nov-16 04:59N 38°13' E 015°16'0 0.0
2017-Nov-16 04:29N 38°13' E 015°16'0 0.0
2017-Nov-16 03:59N 38°13' E 015°16'0 0.0
2017-Nov-16 03:29N 38°13' E 015°16'0 0.0
2017-Nov-16 02:59N 38°13' E 015°16'0 0.0
2017-Nov-16 02:29N 38°13' E 015°16'0 0.0
2017-Nov-16 01:59N 38°13' E 015°16'0 0.0
2017-Nov-16 01:29N 38°13' E 015°16'0 0.0
2017-Nov-16 00:59N 38°13' E 015°16'0 0.0
2017-Nov-16 00:29N 38°13' E 015°16'0 0.0
2017-Nov-15 23:59N 38°13' E 015°16'0 0.0
2017-Nov-15 23:29N 38°13' E 015°16'0 0.0
2017-Nov-15 22:59N 38°13' E 015°16'0 0.0
2017-Nov-15 22:29N 38°13' E 015°16'0 0.0
2017-Nov-15 21:53N 38°13' E 015°16'0 0.0
2017-Nov-15 21:29N 38°13' E 015°16'0 0.0
2017-Nov-15 20:59N 38°13' E 015°16'0 0.0
2017-Nov-15 20:29N 38°13' E 015°16'0 0.0
2017-Nov-15 19:59N 38°13' E 015°16'0 0.0
2017-Nov-15 19:29N 38°13' E 015°16'0 0.0
2017-Nov-15 18:59N 38°13' E 015°16'0 0.0
2017-Nov-15 18:29N 38°13' E 015°16'0 0.0
2017-Nov-15 17:59N 38°13' E 015°16'0 0.0
2017-Nov-15 17:29N 38°13' E 015°16'0 0.0
2017-Nov-15 16:53N 38°13' E 015°16'0 0.0
2017-Nov-15 16:29N 38°13' E 015°16'0 0.0
2017-Nov-15 15:59N 38°13' E 015°16'0 0.0
2017-Nov-15 15:29N 38°13' E 015°16'0 0.1
2017-Nov-15 15:00N 38°13' E 015°16'1 2.1
2017-Nov-15 14:30N 38°13' E 015°18'0 0.1
2017-Nov-15 14:00N 38°13' E 015°18'0 0.0
2017-Nov-15 13:30N 38°13' E 015°18'0 0.1
2017-Nov-15 13:00N 38°13' E 015°18'0 0.0
2017-Nov-15 12:30N 38°13' E 015°18'0 0.1
2017-Nov-15 12:00N 38°13' E 015°18'0 0.1
2017-Nov-15 11:30N 38°13' E 015°18'0 0.0
2017-Nov-15 11:00N 38°13' E 015°18'0 0.1
2017-Nov-15 10:24N 38°13' E 015°18'0 0.1
2017-Nov-15 10:00N 38°13' E 015°18'0 0.0
2017-Nov-15 09:30N 38°13' E 015°18'0 0.1
2017-Nov-15 09:00N 38°13' E 015°18'0 0.1
2017-Nov-15 08:30N 38°13' E 015°18'0 0.1
2017-Nov-15 08:00N 38°13' E 015°18'0 0.1
2017-Nov-15 07:30N 38°13' E 015°18'0 0.2
2017-Nov-15 07:00N 38°13' E 015°18'0 0.0
2017-Nov-15 06:30N 38°13' E 015°18'0 0.0
2017-Nov-15 06:00N 38°13' E 015°18'0 0.2
2017-Nov-15 05:30N 38°13' E 015°18'0 0.1
2017-Nov-15 05:00N 38°13' E 015°18'0 0.1
2017-Nov-15 04:30N 38°13' E 015°18'0 0.0
2017-Nov-15 04:00N 38°13' E 015°18'0 0.1
2017-Nov-15 03:30N 38°13' E 015°18'0 0.0
2017-Nov-15 03:00N 38°13' E 015°18'0 0.0
2017-Nov-15 02:30N 38°13' E 015°18'0 0.0
2017-Nov-15 02:00N 38°13' E 015°18'0 0.0
2017-Nov-15 01:30N 38°13' E 015°18'0 0.1
2017-Nov-15 01:00N 38°13' E 015°18'0 0.1
2017-Nov-15 00:30N 38°13' E 015°18'0 0.1
2017-Nov-15 00:00N 38°13' E 015°18'0 0.1
2017-Nov-14 23:30N 38°13' E 015°18'0 0.0
2017-Nov-14 23:00N 38°13' E 015°18'0 0.0
2017-Nov-14 22:30N 38°13' E 015°18'0 0.0
2017-Nov-14 22:00N 38°13' E 015°18'0 0.0
2017-Nov-14 21:30N 38°13' E 015°18'0 0.1
2017-Nov-14 21:00N 38°13' E 015°18'0 0.0
2017-Nov-14 20:30N 38°13' E 015°18'0 0.1
2017-Nov-14 20:00N 38°13' E 015°18'0 0.0
2017-Nov-14 19:30N 38°13' E 015°18'0 0.0
2017-Nov-14 19:00N 38°13' E 015°18'0 0.0
2017-Nov-14 18:30N 38°13' E 015°18'0 0.0
2017-Nov-14 18:00N 38°13' E 015°18'0 0.0
2017-Nov-14 17:30N 38°13' E 015°18'0 0.0
2017-Nov-14 17:00N 38°13' E 015°18'0 0.1
2017-Nov-14 16:30N 38°13' E 015°18'0 0.1
2017-Nov-14 16:00N 38°13' E 015°18'0 0.1
2017-Nov-14 15:30N 38°13' E 015°18'0 0.1
2017-Nov-14 15:00N 38°13' E 015°18'0 0.0
2017-Nov-14 14:30N 38°13' E 015°18'0 0.3
2017-Nov-14 14:00N 38°13' E 015°18'0 0.1
2017-Nov-14 13:30N 38°13' E 015°18'0 0.1
2017-Nov-14 13:00N 38°13' E 015°18'0 0.0
2017-Nov-14 12:30N 38°13' E 015°18'0 0.0
2017-Nov-14 12:00N 38°13' E 015°18'0 0.0
2017-Nov-14 11:29N 38°13' E 015°18'0 0.0
2017-Nov-14 10:59N 38°13' E 015°18'0 0.0
2017-Nov-14 10:29N 38°13' E 015°18'0 0.1
2017-Nov-14 09:59N 38°13' E 015°18'0 0.2
2017-Nov-14 09:29N 38°13' E 015°18'1 1.9
2017-Nov-14 09:00N 38°14' E 015°17'3 5.0
2017-Nov-14 08:30N 38°16' E 015°17'510.2
2017-Nov-14 08:00N 38°21' E 015°13'3 6.5
2017-Nov-14 07:30N 38°23' E 015°10'4 7.5
2017-Nov-14 07:00N 38°20' E 015°13'4 8.7
2017-Nov-14 06:30N 38°16' E 015°17'3 6.8
2017-Nov-14 06:00N 38°13' E 015°17'0 0.3
2017-Nov-14 05:27N 38°13' E 015°17'0 0.0
2017-Nov-14 04:57N 38°13' E 015°17'0 0.1
2017-Nov-14 04:27N 38°13' E 015°17'0 0.3
2017-Nov-14 03:57N 38°13' E 015°18'0 0.2
2017-Nov-14 03:27N 38°13' E 015°18'0 0.0
2017-Nov-14 02:57N 38°13' E 015°18'0 0.0
2017-Nov-14 02:27N 38°13' E 015°18'0 0.1
2017-Nov-14 01:57N 38°13' E 015°18'0 0.1
2017-Nov-14 01:27N 38°13' E 015°18'0 0.1
2017-Nov-14 00:57N 38°13' E 015°18'0 0.1
2017-Nov-14 00:27N 38°13' E 015°18'0 0.1
2017-Nov-13 23:57N 38°13' E 015°18'0 0.1
2017-Nov-13 23:27N 38°13' E 015°18'0 0.0
2017-Nov-13 22:57N 38°13' E 015°18'0 0.0
2017-Nov-13 22:27N 38°13' E 015°18'0 0.1
2017-Nov-13 21:51N 38°13' E 015°18'0 0.0
2017-Nov-13 01:56N 38°13' E 015°17'0 0.0
2017-Nov-13 01:26N 38°13' E 015°17'0 0.0
2017-Nov-13 00:59N 38°13' E 015°17'0 0.0
2017-Nov-13 00:26N 38°13' E 015°17'0 0.0
2017-Nov-12 23:56N 38°13' E 015°17'0 0.0
2017-Nov-12 23:26N 38°13' E 015°17'0 0.0
2017-Nov-12 22:56N 38°13' E 015°17'0 0.0
2017-Nov-12 22:26N 38°13' E 015°17'0 0.0
2017-Nov-12 21:56N 38°13' E 015°17'0 0.1
2017-Nov-12 21:26N 38°13' E 015°17'0 0.0
2017-Nov-12 20:56N 38°13' E 015°17'0 0.1
2017-Nov-12 20:29N 38°13' E 015°17'  

Dump ship's entire track history